createdAt,value
2023-06-06T00:00:18.490Z,20.50537109
2023-06-06T00:01:19.582Z,20.5255127
2023-06-06T00:02:20.588Z,20.47515869
2023-06-06T00:03:22.743Z,20.45501709
2023-06-06T00:04:23.325Z,20.42480469
2023-06-06T00:05:24.389Z,20.44494629
2023-06-06T00:06:26.405Z,20.41473389
2023-06-06T00:07:27.329Z,20.42480469
2023-06-06T00:08:28.766Z,20.41473389
2023-06-06T00:09:29.803Z,20.42480469
2023-06-06T00:10:31.001Z,20.41473389
2023-06-06T00:11:31.970Z,20.38452148
2023-06-06T00:12:32.885Z,20.40466309
2023-06-06T00:13:33.860Z,20.38452148
2023-06-06T00:14:35.768Z,20.38452148
2023-06-06T00:15:36.784Z,20.40466309
2023-06-06T00:16:38.169Z,20.34423828
2023-06-06T00:18:10.398Z,20.31402588
2023-06-06T00:19:12.505Z,20.27374268
2023-06-06T00:20:13.878Z,20.27374268
2023-06-06T00:21:14.912Z,20.25360107
2023-06-06T00:22:16.701Z,20.23345947
2023-06-06T00:23:17.696Z,20.23345947
2023-06-06T00:24:19.330Z,20.27374268
2023-06-06T00:25:20.505Z,20.26367188
2023-06-06T00:26:21.582Z,20.25360107
2023-06-06T00:27:22.449Z,20.23345947
2023-06-06T00:28:23.362Z,20.25360107
2023-06-06T00:29:25.326Z,20.23345947
2023-06-06T00:30:26.394Z,20.20324707
2023-06-06T00:31:27.500Z,20.22338867
2023-06-06T00:32:28.360Z,20.25360107
2023-06-06T00:33:29.203Z,20.22338867
2023-06-06T00:34:30.398Z,20.19317627
2023-06-06T00:35:32.263Z,20.22338867
2023-06-06T00:36:33.286Z,20.22338867
2023-06-06T00:37:34.080Z,20.22338867
2023-06-06T00:38:35.728Z,20.23345947
2023-06-06T00:39:36.808Z,20.20324707
2023-06-06T00:40:38.178Z,20.12268066
2023-06-06T00:42:10.293Z,20.10253906
2023-06-06T00:43:11.203Z,20.12268066
2023-06-06T00:44:12.118Z,20.07232666
2023-06-06T00:45:13.045Z,20.10253906
2023-06-06T00:46:15.391Z,20.07232666
2023-06-06T00:47:16.290Z,20.02197266
2023-06-06T00:48:18.275Z,20.01190186
2023-06-06T00:49:19.744Z,19.98168945
2023-06-06T00:50:21.264Z,19.98168945
2023-06-06T00:51:22.212Z,19.98168945
2023-06-06T00:52:23.278Z,20.01190186
2023-06-06T00:53:24.240Z,19.98168945
2023-06-06T00:54:25.129Z,19.98168945
2023-06-06T00:55:26.674Z,19.94140625
2023-06-06T00:56:27.508Z,19.90112305
2023-06-06T00:57:28.524Z,19.87091064
2023-06-06T00:58:29.570Z,19.89105225
2023-06-06T00:59:31.341Z,19.89105225
2023-06-06T01:00:32.199Z,19.94140625
2023-06-06T01:01:33.203Z,19.95147705
2023-06-06T01:02:34.125Z,19.87091064
2023-06-06T01:03:35.924Z,19.87091064
2023-06-06T01:04:36.913Z,19.90112305
2023-06-06T01:06:08.790Z,19.87091064
2023-06-06T01:07:09.595Z,19.90112305
2023-06-06T01:08:10.483Z,19.90112305
2023-06-06T01:09:12.277Z,19.87091064
2023-06-06T01:10:13.599Z,19.86083984
2023-06-06T01:11:14.441Z,19.86083984
2023-06-06T01:12:15.348Z,19.83062744
2023-06-06T01:13:17.302Z,19.78027344
2023-06-06T01:14:18.241Z,19.78027344
2023-06-06T01:15:19.798Z,19.76013184
2023-06-06T01:16:20.889Z,19.75006104
2023-06-06T01:17:21.868Z,19.71984863
2023-06-06T01:18:23.659Z,19.79034424
2023-06-06T01:19:25.336Z,19.78027344
2023-06-06T01:20:26.379Z,19.78027344
2023-06-06T01:21:27.384Z,19.76013184
2023-06-06T01:22:29.320Z,19.75006104
2023-06-06T01:23:30.369Z,19.79034424
2023-06-06T01:24:31.124Z,19.80041504
2023-06-06T01:25:32.042Z,19.76013184
2023-06-06T01:26:33.812Z,19.75006104
2023-06-06T01:27:34.838Z,19.70977783
2023-06-06T01:28:35.821Z,19.69970703
2023-06-06T01:29:37.719Z,19.63928223
2023-06-06T01:31:09.431Z,19.66949463
2023-06-06T01:32:10.213Z,19.63928223
2023-06-06T01:33:11.818Z,19.63928223
2023-06-06T01:34:12.800Z,19.60906982
2023-06-06T01:35:13.814Z,19.61914063
2023-06-06T01:36:14.760Z,19.63928223
2023-06-06T01:37:15.757Z,19.61914063
2023-06-06T01:38:16.724Z,19.60906982
2023-06-06T01:39:18.290Z,19.59899902
2023-06-06T01:40:19.185Z,19.59899902
2023-06-06T01:41:20.017Z,19.59899902
2023-06-06T01:42:20.849Z,19.57885742
2023-06-06T01:43:21.658Z,19.51843262
2023-06-06T01:44:23.312Z,19.52850342
2023-06-06T01:45:24.158Z,19.51843262
2023-06-06T01:46:24.985Z,19.48822021
2023-06-06T01:47:26.869Z,19.49829102
2023-06-06T01:48:28.923Z,19.49829102
2023-06-06T01:49:30.895Z,19.48822021
2023-06-06T01:50:31.825Z,19.49829102
2023-06-06T01:51:32.766Z,19.51843262
2023-06-06T01:52:33.808Z,19.46807861
2023-06-06T01:53:34.767Z,19.45800781
2023-06-06T01:54:36.397Z,19.41772461
2023-06-06T01:55:37.647Z,19.44793701
2023-06-06T01:57:09.833Z,19.45800781
2023-06-06T01:58:10.930Z,19.46807861
2023-06-06T01:59:12.776Z,19.46807861
2023-06-06T02:00:13.872Z,19.49829102
2023-06-06T02:01:15.325Z,19.51843262
2023-06-06T02:02:16.532Z,19.48822021
2023-06-06T02:03:17.603Z,19.49829102
2023-06-06T02:04:18.340Z,19.48822021
2023-06-06T02:05:19.354Z,19.44793701
2023-06-06T02:06:21.392Z,19.39758301
2023-06-06T02:07:22.577Z,19.42779541
2023-06-06T02:08:23.550Z,19.39758301
2023-06-06T02:09:25.330Z,19.41772461
2023-06-06T02:10:26.357Z,19.39758301
2023-06-06T02:11:27.387Z,19.347229
2023-06-06T02:12:29.308Z,19.38751221
2023-06-06T02:13:30.333Z,19.44793701
2023-06-06T02:14:31.147Z,19.45800781
2023-06-06T02:15:32.105Z,19.39758301
2023-06-06T02:16:33.890Z,19.41772461
2023-06-06T02:17:34.814Z,19.39758301
2023-06-06T02:18:36.338Z,19.3069458
2023-06-06T02:20:08.785Z,19.22637939
2023-06-06T02:21:09.989Z,19.20623779
2023-06-06T02:22:11.351Z,19.14581299
2023-06-06T02:23:12.442Z,19.06524658
2023-06-06T02:24:13.680Z,19.06524658
2023-06-06T02:25:14.646Z,19.01489258
2023-06-06T02:26:16.398Z,18.97460938
2023-06-06T02:27:17.454Z,18.97460938
2023-06-06T02:28:18.430Z,18.97460938
2023-06-06T02:29:19.406Z,19.01489258
2023-06-06T02:30:21.341Z,19.02496338
2023-06-06T02:31:22.517Z,19.04510498
2023-06-06T02:32:23.288Z,19.06524658
2023-06-06T02:33:24.852Z,19.09545898
2023-06-06T02:34:25.873Z,19.12567139
2023-06-06T02:35:26.841Z,19.15588379
2023-06-06T02:36:28.812Z,19.15588379
2023-06-06T02:37:29.688Z,19.14581299
2023-06-06T02:38:30.611Z,19.11560059
2023-06-06T02:39:32.380Z,19.08538818
2023-06-06T02:40:33.423Z,19.06524658
2023-06-06T02:41:34.420Z,19.04510498
2023-06-06T02:42:35.273Z,19.01489258
2023-06-06T02:43:36.158Z,19.01489258
2023-06-06T02:45:08.216Z,18.99475098
2023-06-06T02:46:09.142Z,18.94439697
2023-06-06T02:47:10.692Z,18.96453857
2023-06-06T02:48:11.602Z,19.01489258
2023-06-06T02:49:13.540Z,19.04510498
2023-06-06T02:50:15.271Z,19.02496338
2023-06-06T02:51:16.193Z,19.02496338
2023-06-06T02:52:17.050Z,19.01489258
2023-06-06T02:53:17.927Z,18.99475098
2023-06-06T02:54:18.829Z,18.94439697
2023-06-06T02:55:19.794Z,18.91418457
2023-06-06T02:56:21.267Z,18.90411377
2023-06-06T02:57:22.114Z,18.89404297
2023-06-06T02:58:22.963Z,18.89404297
2023-06-06T02:59:23.798Z,18.84368896
2023-06-06T03:00:25.153Z,18.86383057
2023-06-06T03:01:26.079Z,18.89404297
2023-06-06T03:02:27.059Z,18.84368896
2023-06-06T03:03:28.733Z,18.84368896
2023-06-06T03:04:29.610Z,18.86383057
2023-06-06T03:05:30.505Z,18.84368896
2023-06-06T03:06:32.303Z,18.79333496
2023-06-06T03:07:33.194Z,18.74298096
2023-06-06T03:08:34.038Z,18.76312256
2023-06-06T03:09:35.292Z,18.83361816
2023-06-06T03:11:07.274Z,18.84368896
2023-06-06T03:12:08.110Z,18.86383057
2023-06-06T03:13:09.032Z,18.82354736
2023-06-06T03:14:09.997Z,18.78326416
2023-06-06T03:15:11.783Z,18.78326416
2023-06-06T03:16:12.685Z,18.74298096
2023-06-06T03:17:13.676Z,18.72283936
2023-06-06T03:18:15.283Z,18.74298096
2023-06-06T03:19:16.783Z,18.75305176
2023-06-06T03:20:18.329Z,18.72283936
2023-06-06T03:21:19.257Z,18.72283936
2023-06-06T03:22:20.769Z,18.71276855
2023-06-06T03:23:21.791Z,18.69262695
2023-06-06T03:24:22.539Z,18.68255615
2023-06-06T03:25:23.578Z,18.71276855
2023-06-06T03:26:25.375Z,18.72283936
2023-06-06T03:27:26.236Z,18.72283936
2023-06-06T03:28:27.232Z,18.74298096
2023-06-06T03:29:28.193Z,18.74298096
2023-06-06T03:30:29.847Z,18.72283936
2023-06-06T03:31:30.984Z,18.69262695
2023-06-06T03:32:31.889Z,18.69262695
2023-06-06T03:33:33.404Z,18.71276855
2023-06-06T03:34:34.349Z,18.68255615
2023-06-06T03:35:35.305Z,18.69262695
2023-06-06T03:37:07.341Z,18.68255615
2023-06-06T03:38:08.367Z,18.72283936
2023-06-06T03:39:09.278Z,18.76312256
2023-06-06T03:40:10.821Z,18.78326416
2023-06-06T03:41:12.022Z,18.75305176
2023-06-06T03:42:12.705Z,18.75305176
2023-06-06T03:43:13.836Z,18.71276855
2023-06-06T03:44:14.882Z,18.71276855
2023-06-06T03:45:16.843Z,18.69262695
2023-06-06T03:46:17.935Z,18.69262695
2023-06-06T03:47:18.839Z,18.66241455
2023-06-06T03:48:20.337Z,18.68255615
2023-06-06T03:49:21.285Z,18.68255615
2023-06-06T03:50:22.982Z,18.68255615
2023-06-06T03:51:24.782Z,18.69262695
2023-06-06T03:52:25.710Z,18.68255615
2023-06-06T03:53:26.642Z,18.66241455
2023-06-06T03:54:27.598Z,18.68255615
2023-06-06T03:55:28.590Z,18.74298096
2023-06-06T03:56:30.514Z,18.76312256
2023-06-06T03:57:31.423Z,18.74298096
2023-06-06T03:58:32.338Z,18.74298096
2023-06-06T03:59:33.259Z,18.74298096
2023-06-06T04:00:34.849Z,18.68255615
2023-06-06T04:01:36.159Z,18.68255615
2023-06-06T04:03:08.717Z,18.72283936
2023-06-06T04:04:09.429Z,18.74298096
2023-06-06T04:05:10.187Z,18.69262695
2023-06-06T04:06:11.398Z,18.69262695
2023-06-06T04:07:13.602Z,18.66241455
2023-06-06T04:08:14.525Z,18.68255615
2023-06-06T04:09:15.415Z,18.69262695
2023-06-06T04:10:17.351Z,18.69262695
2023-06-06T04:11:18.349Z,18.65234375
2023-06-06T04:12:19.286Z,18.64227295
2023-06-06T04:13:20.287Z,18.60198975
2023-06-06T04:14:23.211Z,18.62213135
2023-06-06T04:15:23.360Z,18.59191895
2023-06-06T04:16:24.455Z,18.59191895
2023-06-06T04:17:25.232Z,18.59191895
2023-06-06T04:18:26.803Z,18.62213135
2023-06-06T04:19:27.694Z,18.65234375
2023-06-06T04:20:29.341Z,18.68255615
2023-06-06T04:21:30.353Z,18.69262695
2023-06-06T04:22:31.739Z,18.71276855
2023-06-06T04:23:32.673Z,18.71276855
2023-06-06T04:24:33.547Z,18.69262695
2023-06-06T04:25:34.480Z,18.72283936
2023-06-06T04:26:35.835Z,18.66241455
2023-06-06T04:28:07.326Z,18.64227295
2023-06-06T04:29:08.359Z,18.60198975
2023-06-06T04:30:09.826Z,18.60198975
2023-06-06T04:31:11.568Z,18.65234375
2023-06-06T04:32:12.222Z,18.68255615
2023-06-06T04:33:13.877Z,18.71276855
2023-06-06T04:34:14.809Z,18.72283936
2023-06-06T04:35:15.910Z,18.72283936
2023-06-06T04:36:16.904Z,18.72283936
2023-06-06T04:37:17.868Z,18.74298096
2023-06-06T04:38:18.806Z,18.72283936
2023-06-06T04:39:19.725Z,18.69262695
2023-06-06T04:40:21.377Z,18.69262695
2023-06-06T04:41:52.136Z,18.72283936
2023-06-06T04:42:23.886Z,18.74298096
2023-06-06T04:43:25.163Z,18.71276855
2023-06-06T04:44:25.831Z,18.69262695
2023-06-06T04:45:26.774Z,18.71276855
2023-06-06T04:46:28.288Z,18.71276855
2023-06-06T04:47:29.144Z,18.74298096
2023-06-06T04:48:30.256Z,18.75305176
2023-06-06T04:49:31.800Z,18.78326416
2023-06-06T04:50:33.322Z,18.79333496
2023-06-06T04:51:34.312Z,18.83361816
2023-06-06T04:52:35.603Z,18.82354736
2023-06-06T04:54:06.974Z,18.82354736
2023-06-06T04:55:07.842Z,18.82354736
2023-06-06T04:56:08.900Z,18.83361816
2023-06-06T04:57:10.788Z,18.86383057
2023-06-06T04:58:11.689Z,18.89404297
2023-06-06T04:59:13.698Z,18.89404297
2023-06-06T05:00:14.601Z,18.90411377
2023-06-06T05:01:16.309Z,18.91418457
2023-06-06T05:02:17.248Z,18.93432617
2023-06-06T05:03:18.872Z,18.93432617
2023-06-06T05:04:20.254Z,18.96453857
2023-06-06T05:05:21.124Z,18.96453857
2023-06-06T05:06:22.828Z,18.96453857
2023-06-06T05:07:23.725Z,18.97460938
2023-06-06T05:08:24.696Z,18.99475098
2023-06-06T05:09:25.606Z,18.99475098
2023-06-06T05:10:26.534Z,19.01489258
2023-06-06T05:11:28.285Z,18.99475098
2023-06-06T05:12:29.218Z,19.01489258
2023-06-06T05:13:30.164Z,19.06524658
2023-06-06T05:14:31.019Z,19.06524658
2023-06-06T05:15:31.910Z,19.08538818
2023-06-06T05:16:33.803Z,19.06524658
2023-06-06T05:17:34.625Z,19.08538818
2023-06-06T05:19:05.974Z,19.04510498
2023-06-06T05:20:07.766Z,19.05517578
2023-06-06T05:21:09.616Z,19.08538818
2023-06-06T05:22:10.245Z,19.08538818
2023-06-06T05:23:11.104Z,19.09545898
2023-06-06T05:24:12.039Z,19.09545898
2023-06-06T05:25:12.882Z,19.09545898
2023-06-06T05:26:13.704Z,19.11560059
2023-06-06T05:27:15.471Z,19.12567139
2023-06-06T05:28:16.503Z,19.14581299
2023-06-06T05:29:17.436Z,19.12567139
2023-06-06T05:30:18.360Z,19.08538818
2023-06-06T05:31:19.824Z,19.08538818
2023-06-06T05:32:20.789Z,19.08538818
2023-06-06T05:33:22.439Z,19.08538818
2023-06-06T05:34:23.464Z,19.09545898
2023-06-06T05:35:24.357Z,19.12567139
2023-06-06T05:36:25.817Z,19.12567139
2023-06-06T05:37:26.717Z,19.12567139
2023-06-06T05:38:27.777Z,19.12567139
2023-06-06T05:39:28.787Z,19.12567139
2023-06-06T05:40:29.724Z,19.16595459
2023-06-06T05:41:31.290Z,19.15588379
2023-06-06T05:42:32.235Z,19.15588379
2023-06-06T05:43:33.422Z,19.15588379
2023-06-06T05:44:34.446Z,19.14581299
2023-06-06T05:46:06.033Z,19.14581299
2023-06-06T05:47:06.868Z,19.15588379
2023-06-06T05:48:07.921Z,19.16595459
2023-06-06T05:49:09.401Z,19.22637939
2023-06-06T05:50:10.399Z,19.2364502
2023-06-06T05:51:12.419Z,19.2364502
2023-06-06T05:52:13.792Z,19.246521
2023-06-06T05:53:14.650Z,19.2666626
2023-06-06T05:54:17.219Z,19.246521
2023-06-06T05:55:16.620Z,19.2364502
2023-06-06T05:56:18.443Z,19.246521
2023-06-06T05:57:19.446Z,19.2767334
2023-06-06T05:58:20.313Z,19.296875
2023-06-06T05:59:21.247Z,19.3371582
2023-06-06T06:00:22.686Z,19.347229
2023-06-06T06:01:24.504Z,19.37744141
2023-06-06T06:02:26.730Z,19.42779541
2023-06-06T06:03:27.855Z,19.44793701
2023-06-06T06:04:28.971Z,19.41772461
2023-06-06T06:05:30.915Z,19.41772461
2023-06-06T06:06:32.866Z,19.41772461
2023-06-06T06:07:33.848Z,19.39758301
2023-06-06T06:09:05.612Z,19.39758301
2023-06-06T06:10:06.794Z,19.45800781
2023-06-06T06:11:08.492Z,19.46807861
2023-06-06T06:12:09.338Z,19.48822021
2023-06-06T06:13:10.360Z,19.49829102
2023-06-06T06:14:11.365Z,19.54864502
2023-06-06T06:15:12.771Z,19.57885742
2023-06-06T06:16:14.371Z,19.59899902
2023-06-06T06:17:15.303Z,19.64935303
2023-06-06T06:18:16.399Z,19.63928223
2023-06-06T06:19:17.435Z,19.63928223
2023-06-06T06:20:19.405Z,19.61914063
2023-06-06T06:21:20.875Z,19.60906982
2023-06-06T06:22:21.730Z,19.59899902
2023-06-06T06:23:22.791Z,19.63928223
2023-06-06T06:24:23.779Z,19.63928223
2023-06-06T06:25:24.768Z,19.67956543
2023-06-06T06:26:26.363Z,19.69970703
2023-06-06T06:27:27.369Z,19.71984863
2023-06-06T06:28:28.416Z,19.70977783
2023-06-06T06:29:29.578Z,19.71984863
2023-06-06T06:30:30.660Z,19.76013184
2023-06-06T06:31:32.382Z,19.79034424
2023-06-06T06:32:34.322Z,19.85076904
2023-06-06T06:34:05.680Z,19.86083984
2023-06-06T06:35:06.667Z,19.89105225
2023-06-06T06:36:08.403Z,19.92126465
2023-06-06T06:37:09.345Z,19.92126465
2023-06-06T06:38:10.235Z,19.92126465
2023-06-06T06:39:11.209Z,19.94140625
2023-06-06T06:40:12.200Z,19.94140625
2023-06-06T06:41:13.973Z,19.97161865
2023-06-06T06:42:14.956Z,19.97161865
2023-06-06T06:43:15.923Z,20.01190186
2023-06-06T06:44:17.594Z,20.01190186
2023-06-06T06:45:18.502Z,20.02197266
2023-06-06T06:46:20.431Z,20.05218506
2023-06-06T06:47:21.392Z,20.07232666
2023-06-06T06:48:22.431Z,20.08239746
2023-06-06T06:49:23.442Z,20.10253906
2023-06-06T06:50:25.332Z,20.15289307
2023-06-06T06:51:26.920Z,20.13275146
2023-06-06T06:52:27.937Z,20.15289307
2023-06-06T06:53:28.959Z,20.16296387
2023-06-06T06:54:29.976Z,20.19317627
2023-06-06T06:55:30.905Z,20.23345947
2023-06-06T06:56:31.957Z,20.26367188
2023-06-06T06:57:33.591Z,20.30395508
2023-06-06T06:59:05.258Z,20.30395508
2023-06-06T07:00:06.330Z,20.30395508
2023-06-06T07:01:07.246Z,20.31402588
2023-06-06T07:02:08.818Z,20.30395508
2023-06-06T07:03:10.265Z,20.33416748
2023-06-06T07:04:11.103Z,20.34423828
2023-06-06T07:05:12.090Z,20.33416748
2023-06-06T07:06:13.596Z,20.33416748
2023-06-06T07:07:14.431Z,20.35430908
2023-06-06T07:08:15.291Z,20.35430908
2023-06-06T07:09:16.805Z,20.33416748
2023-06-06T07:10:18.416Z,20.33416748
2023-06-06T07:11:19.775Z,20.34423828
2023-06-06T07:12:21.428Z,20.34423828
2023-06-06T07:13:22.192Z,20.37445068
2023-06-06T07:14:23.132Z,20.38452148
2023-06-06T07:15:24.038Z,20.40466309
2023-06-06T07:16:25.936Z,20.41473389
2023-06-06T07:17:26.654Z,20.42480469
2023-06-06T07:18:27.551Z,20.49530029
2023-06-06T07:19:28.443Z,20.5255127
2023-06-06T07:20:30.364Z,20.5557251
2023-06-06T07:21:31.836Z,20.5758667
2023-06-06T07:22:32.827Z,20.5657959
2023-06-06T07:24:04.364Z,20.5557251
2023-06-06T07:25:05.204Z,20.5355835
2023-06-06T07:26:06.047Z,20.50537109
2023-06-06T07:27:06.993Z,20.49530029
2023-06-06T07:28:07.742Z,20.5255127
2023-06-06T07:29:08.553Z,20.49530029
2023-06-06T07:30:09.830Z,20.5255127
2023-06-06T07:31:12.146Z,20.5355835
2023-06-06T07:32:13.615Z,20.5355835
2023-06-06T07:33:14.554Z,20.5557251
2023-06-06T07:34:15.267Z,20.5657959
2023-06-06T07:35:16.842Z,20.5758667
2023-06-06T07:36:17.730Z,20.5960083
2023-06-06T07:37:19.387Z,20.5960083
2023-06-06T07:38:20.265Z,20.6262207
2023-06-06T07:39:21.103Z,20.6362915
2023-06-06T07:40:21.865Z,20.6262207
2023-06-06T07:41:22.627Z,20.6262207
2023-06-06T07:42:24.334Z,20.6362915
2023-06-06T07:43:25.161Z,20.67657471
2023-06-06T07:44:26.033Z,20.6362915
2023-06-06T07:45:26.758Z,20.6362915
2023-06-06T07:46:28.363Z,20.67657471
2023-06-06T07:47:29.231Z,20.67657471
2023-06-06T07:48:30.880Z,20.71685791
2023-06-06T07:49:31.679Z,20.72692871
2023-06-06T07:50:32.465Z,20.72692871
2023-06-06T07:52:04.699Z,20.75714111
2023-06-06T07:53:06.324Z,20.74707031
2023-06-06T07:54:07.198Z,20.74707031
2023-06-06T07:55:08.038Z,20.72692871
2023-06-06T07:56:09.803Z,20.74707031
2023-06-06T07:57:11.358Z,20.74707031
2023-06-06T07:58:12.446Z,20.77728271
2023-06-06T07:59:13.741Z,20.78735352
2023-06-06T08:00:14.822Z,20.78735352
2023-06-06T08:01:15.808Z,20.78735352
2023-06-06T08:02:17.523Z,20.78735352
2023-06-06T08:03:18.965Z,20.81756592
2023-06-06T08:04:20.086Z,20.80749512
2023-06-06T08:05:21.175Z,20.80749512
2023-06-06T08:06:22.835Z,20.78735352
2023-06-06T08:07:23.789Z,20.78735352
2023-06-06T08:08:25.374Z,20.78735352
2023-06-06T08:09:26.413Z,20.78735352
2023-06-06T08:10:27.504Z,20.81756592
2023-06-06T08:11:29.361Z,20.82763672
2023-06-06T08:12:30.858Z,20.86791992
2023-06-06T08:13:31.692Z,20.89813232
2023-06-06T08:14:34.557Z,20.89813232
2023-06-06T08:16:04.754Z,20.89813232
2023-06-06T08:17:06.536Z,20.86791992
2023-06-06T08:18:07.446Z,20.84777832
2023-06-06T08:19:08.979Z,20.84777832
2023-06-06T08:20:10.152Z,20.81756592
2023-06-06T08:21:12.077Z,20.84777832
2023-06-06T08:22:13.897Z,20.86791992
2023-06-06T08:23:15.118Z,20.87799072
2023-06-06T08:24:16.156Z,20.89813232
2023-06-06T08:25:17.712Z,20.92834473
2023-06-06T08:26:19.421Z,20.96862793
2023-06-06T08:27:20.466Z,20.99884033
2023-06-06T08:28:21.415Z,21.02905273
2023-06-06T08:29:22.534Z,21.04919434
2023-06-06T08:30:23.686Z,21.04919434
2023-06-06T08:31:25.439Z,21.07940674
2023-06-06T08:32:27.427Z,21.10961914
2023-06-06T08:33:28.286Z,21.11968994
2023-06-06T08:34:29.204Z,21.14990234
2023-06-06T08:35:30.371Z,21.15997314
2023-06-06T08:36:32.527Z,21.21032715
2023-06-06T08:38:04.070Z,21.21032715
2023-06-06T08:39:04.966Z,21.22039795
2023-06-06T08:40:05.950Z,21.26068115
2023-06-06T08:41:07.027Z,21.28082275
2023-06-06T08:42:08.900Z,21.28082275
2023-06-06T08:43:09.921Z,21.27075195
2023-06-06T08:44:10.769Z,21.27075195
2023-06-06T08:45:11.733Z,21.26068115
2023-06-06T08:46:12.954Z,21.26068115
2023-06-06T08:47:14.408Z,21.27075195
2023-06-06T08:48:15.424Z,21.30096436
2023-06-06T08:49:16.890Z,21.30096436
2023-06-06T08:50:18.027Z,21.31103516
2023-06-06T08:51:20.012Z,21.34124756
2023-06-06T08:52:21.893Z,21.34124756
2023-06-06T08:53:22.936Z,21.36138916
2023-06-06T08:54:23.839Z,21.37145996
2023-06-06T08:55:24.755Z,21.38153076
2023-06-06T08:56:25.770Z,21.40167236
2023-06-06T08:57:26.744Z,21.40167236
2023-06-06T08:58:27.742Z,21.40167236
2023-06-06T08:59:28.806Z,21.42181396
2023-06-06T09:00:29.708Z,21.42181396
2023-06-06T09:01:30.833Z,21.43188477
2023-06-06T09:02:32.401Z,21.46209717
2023-06-06T09:04:04.171Z,21.48223877
2023-06-06T09:05:05.835Z,21.52252197
2023-06-06T09:06:07.613Z,21.55273438
2023-06-06T09:07:09.470Z,21.58294678
2023-06-06T09:08:10.884Z,21.61315918
2023-06-06T09:09:11.928Z,21.63330078
2023-06-06T09:10:12.977Z,21.66351318
2023-06-06T09:11:14.186Z,21.70379639
2023-06-06T09:12:15.113Z,21.73400879
2023-06-06T09:13:17.002Z,21.74407959
2023-06-06T09:14:18.035Z,21.77429199
2023-06-06T09:15:19.177Z,21.79443359
2023-06-06T09:16:22.789Z,21.79443359
2023-06-06T09:17:21.800Z,21.824646
2023-06-06T09:18:22.770Z,21.8347168
2023-06-06T09:19:23.822Z,21.8649292
2023-06-06T09:20:24.858Z,21.8951416
2023-06-06T09:21:26.300Z,21.9354248
2023-06-06T09:22:27.834Z,21.95556641
2023-06-06T09:23:28.867Z,21.95556641
2023-06-06T09:24:30.023Z,21.98577881
2023-06-06T09:25:31.004Z,22.00592041
2023-06-06T09:26:32.515Z,22.01599121
2023-06-06T09:28:03.935Z,22.01599121
2023-06-06T09:29:04.816Z,22.04620361
2023-06-06T09:30:05.964Z,22.07641602
2023-06-06T09:31:07.098Z,22.10662842
2023-06-06T09:32:08.036Z,22.10662842
2023-06-06T09:33:10.082Z,22.13684082
2023-06-06T09:34:11.287Z,22.14691162
2023-06-06T09:35:12.209Z,22.16705322
2023-06-06T09:36:15.986Z,22.18719482
2023-06-06T09:37:14.922Z,22.19726563
2023-06-06T09:38:15.792Z,22.20733643
2023-06-06T09:39:16.740Z,22.22747803
2023-06-06T09:40:17.786Z,22.23754883
2023-06-06T09:41:21.013Z,22.26776123
2023-06-06T09:42:20.437Z,22.30804443
2023-06-06T09:43:21.942Z,22.34832764
2023-06-06T09:44:22.862Z,22.38861084
2023-06-06T09:45:23.945Z,22.41882324
2023-06-06T09:46:25.560Z,22.47924805
2023-06-06T09:47:27.598Z,22.50946045
2023-06-06T09:48:28.550Z,22.55981445
2023-06-06T09:49:29.392Z,22.59002686
2023-06-06T09:50:30.480Z,22.67059326
2023-06-06T09:52:03.031Z,22.72094727
2023-06-06T09:53:04.986Z,22.75115967
2023-06-06T09:54:06.824Z,22.79144287
2023-06-06T09:55:07.753Z,22.82165527
2023-06-06T09:56:08.966Z,22.85186768
2023-06-06T09:57:09.912Z,22.88208008
2023-06-06T09:58:10.836Z,22.93243408
2023-06-06T09:59:11.789Z,22.94250488
2023-06-06T10:00:12.630Z,22.97271729
2023-06-06T10:01:14.098Z,22.96264648
2023-06-06T10:02:15.069Z,22.97271729
2023-06-06T10:03:17.154Z,22.97271729
2023-06-06T10:04:18.060Z,23.00292969
2023-06-06T10:05:19.013Z,23.00292969
2023-06-06T10:06:20.360Z,23.00292969
2023-06-06T10:07:21.344Z,22.99285889
2023-06-06T10:08:22.273Z,23.00292969
2023-06-06T10:09:23.511Z,23.00292969
2023-06-06T10:10:24.241Z,23.01300049
2023-06-06T10:11:25.025Z,23.03314209
2023-06-06T10:12:26.898Z,23.03314209
2023-06-06T10:13:28.436Z,23.01300049
2023-06-06T10:14:29.467Z,23.01300049
2023-06-06T10:15:30.552Z,23.03314209
2023-06-06T10:16:32.386Z,23.07342529
2023-06-06T10:18:04.131Z,23.07342529
2023-06-06T10:19:05.038Z,23.1137085
2023-06-06T10:20:06.040Z,23.1137085
2023-06-06T10:21:06.929Z,23.1137085
2023-06-06T10:22:08.309Z,23.09356689
2023-06-06T10:23:10.013Z,23.1137085
2023-06-06T10:24:11.169Z,23.07342529
2023-06-06T10:25:12.085Z,23.07342529
2023-06-06T10:26:13.101Z,23.06335449
2023-06-06T10:27:13.927Z,23.03314209
2023-06-06T10:28:14.765Z,23.01300049
2023-06-06T10:29:16.494Z,23.01300049
2023-06-06T10:30:17.587Z,23.03314209
2023-06-06T10:31:18.520Z,23.06335449
2023-06-06T10:32:20.366Z,23.09356689
2023-06-06T10:33:21.882Z,23.1137085
2023-06-06T10:34:22.810Z,23.1439209
2023-06-06T10:35:23.751Z,23.1640625
2023-06-06T10:36:24.687Z,23.1842041
2023-06-06T10:37:25.734Z,23.2144165
2023-06-06T10:38:26.550Z,23.23455811
2023-06-06T10:39:28.387Z,23.25469971
2023-06-06T10:40:29.483Z,23.26477051
2023-06-06T10:41:30.478Z,23.31512451
2023-06-06T10:43:02.856Z,23.30505371
2023-06-06T10:44:03.914Z,23.31512451
2023-06-06T10:45:04.770Z,23.33526611
2023-06-06T10:46:05.874Z,23.36547852
2023-06-06T10:47:06.884Z,23.36547852
2023-06-06T10:48:08.885Z,23.37554932
2023-06-06T10:49:09.752Z,23.40576172
2023-06-06T10:50:10.839Z,23.43597412
2023-06-06T10:51:13.174Z,23.44604492
2023-06-06T10:52:14.315Z,23.48632813
2023-06-06T10:53:15.903Z,23.51654053
2023-06-06T10:54:16.755Z,23.52661133
2023-06-06T10:55:17.711Z,23.53668213
2023-06-06T10:56:18.939Z,23.55682373
2023-06-06T10:57:19.937Z,23.56689453
2023-06-06T10:58:20.975Z,23.58703613
2023-06-06T10:59:21.939Z,23.61724854
2023-06-06T11:00:23.302Z,23.62731934
2023-06-06T11:01:25.024Z,23.63739014
2023-06-06T11:02:26.599Z,23.67767334
2023-06-06T11:03:28.514Z,23.70788574
2023-06-06T11:04:29.529Z,23.73809814
2023-06-06T11:05:30.479Z,23.78845215
2023-06-06T11:07:02.354Z,23.81866455
2023-06-06T11:08:03.239Z,23.85894775
2023-06-06T11:09:04.224Z,23.86901855
2023-06-06T11:10:04.983Z,23.88916016
2023-06-06T11:11:06.760Z,23.89923096
2023-06-06T11:12:07.254Z,23.88916016
2023-06-06T11:13:08.155Z,23.88916016
2023-06-06T11:14:09.952Z,23.89923096
2023-06-06T11:15:10.845Z,23.88916016